Date,TemperatureHighF,TemperatureAvgF,TemperatureLowF,DewpointHighF,DewpointAvgF,DewpointLowF,HumidityHigh,HumidityAvg,HumidityLow,PressureMaxIn,PressureMinIn,WindSpeedMaxMPH,WindSpeedAvgMPH,GustSpeedMaxMPH,PrecipitationSumIn
2013-2-1,20.5,2.7,-8.9,-1.1,-14.8,-19.5,52,41,21,29.24,29.03,6,3,9,383.67
2013-2-2,41.3,7.3,3.7,31.5,-10.9,-16.1,47,40,32,29.06,28.94,3,1,4,0.00
2013-2-3,32.0,13.9,6.3,11.3,-1.7,-8.6,71,48,42,29.00,28.88,8,2,10,0.00
2013-2-12,41.3,27.8,23.0,31.5,18.2,13.9,89,68,38,28.97,28.82,6,2,8,0.00
2013-2-13,46.2,31.1,16.9,29.4,22.5,13.9,90,72,46,28.82,28.65,6,2,7,0.00
2013-2-14,41.3,33.5,27.1,33.1,24.5,16.0,92,71,38,29.97,28.53,11,4,17,0.00
2013-2-15,35.8,23.9,14.4,18.3,6.3,0.5,70,47,33,29.15,28.97,7,3,11,0.00
2013-2-16,26.6,14.0,3.9,8.1,-3.3,-11.5,54,44,37,29.15,29.03,6,2,8,0.00
2013-2-17,31.8,18.0,0.0,16.8,2.1,-14.6,64,49,35,29.06,28.80,8,3,10,0.00
2013-2-18,49.3,34.1,21.6,35.4,25.5,14.8,98,71,52,28.80,28.41,9,4,13,0.04
2013-2-19,23.2,13.7,6.8,15.0,2.4,-6.9,79,61,47,29.09,28.53,11,5,15,0.00
2013-2-20,33.6,16.3,3.9,10.9,-0.1,-9.1,56,48,33,29.24,29.09,8,2,10,0.00
2013-2-21,25.3,19.4,10.2,23.8,10.9,-1.6,98,70,52,29.27,28.91,9,3,15,0.00
2013-2-22,40.1,27.9,23.5,25.6,22.4,19.9,94,80,53,28.91,28.71,7,2,12,0.00
2013-2-23,43.5,27.4,20.3,22.7,16.5,12.0,84,65,41,28.85,28.77,7,2,9,0.00
2013-2-24,58.5,27.9,10.4,29.0,13.9,4.4,86,58,29,29.03,28.85,4,1,5,0.10
2013-2-25,49.1,29.8,14.5,26.5,18.0,8.7,80,63,40,29.06,28.91,4,1,6,0.03
2013-2-26,35.4,30.8,28.4,29.5,25.2,21.4,98,80,60,28.94,28.56,14,5,17,0.00
2013-2-27,38.5,31.6,27.9,30.9,28.2,25.0,98,88,67,28.74,28.56,10,4,16,0.09
2013-2-28,40.8,32.1,23.5,29.9,23.8,14.9,93,72,50,29.03,28.71,9,4,12,0.00